sensor_id;sensor_type;location;lat;lon;timestamp;P1;durP1;ratioP1;P2;durP2;ratioP2
57249;SDS011;43102;52.014;-0.680;2023-08-08T00:00:00;4.20;;;2.70;;
57249;SDS011;43102;52.014;-0.680;2023-08-08T00:01:01;4.20;;;2.70;;
57249;SDS011;43102;52.014;-0.680;2023-08-08T00:02:01;4.20;;;2.70;;
57249;SDS011;43102;52.014;-0.680;2023-08-08T00:03:01;4.20;;;2.70;;
57249;SDS011;43102;52.014;-0.680;2023-08-08T00:04:00;4.20;;;2.70;;
57249;SDS011;43102;52.014;-0.680;2023-08-08T00:05:00;4.20;;;2.70;;
57249;SDS011;43102;52.014;-0.680;2023-08-08T00:06:00;4.20;;;2.70;;
57249;SDS011;43102;52.014;-0.680;2023-08-08T00:07:00;4.20;;;2.70;;
57249;SDS011;43102;52.014;-0.680;2023-08-08T00:08:00;4.20;;;2.70;;
57249;SDS011;43102;52.014;-0.680;2023-08-08T00:09:00;4.20;;;2.70;;
57249;SDS011;43102;52.014;-0.680;2023-08-08T00:10:00;4.20;;;2.70;;
57249;SDS011;43102;52.014;-0.680;2023-08-08T00:11:00;4.20;;;2.70;;
57249;SDS011;43102;52.014;-0.680;2023-08-08T00:12:01;4.20;;;2.70;;
57249;SDS011;43102;52.014;-0.680;2023-08-08T00:13:01;3.60;;;2.80;;
57249;SDS011;43102;52.014;-0.680;2023-08-08T00:14:00;3.60;;;2.80;;
57249;SDS011;43102;52.014;-0.680;2023-08-08T00:15:00;3.60;;;2.80;;
57249;SDS011;43102;52.014;-0.680;2023-08-08T00:16:00;3.60;;;2.80;;
57249;SDS011;43102;52.014;-0.680;2023-08-08T00:17:00;3.60;;;2.80;;
57249;SDS011;43102;52.014;-0.680;2023-08-08T00:18:00;3.60;;;2.80;;
57249;SDS011;43102;52.014;-0.680;2023-08-08T00:19:00;3.60;;;2.80;;
57249;SDS011;43102;52.014;-0.680;2023-08-08T00:20:01;3.60;;;2.80;;
57249;SDS011;43102;52.014;-0.680;2023-08-08T00:21:00;3.60;;;2.80;;
57249;SDS011;43102;52.014;-0.680;2023-08-08T00:22:01;3.60;;;2.80;;
57249;SDS011;43102;52.014;-0.680;2023-08-08T00:23:00;3.60;;;2.80;;
57249;SDS011;43102;52.014;-0.680;2023-08-08T00:24:00;3.60;;;2.80;;
57249;SDS011;43102;52.014;-0.680;2023-08-08T00:25:00;3.60;;;2.80;;
57249;SDS011;43102;52.014;-0.680;2023-08-08T00:26:00;3.60;;;2.80;;
57249;SDS011;43102;52.014;-0.680;2023-08-08T00:27:00;3.60;;;2.80;;
57249;SDS011;43102;52.014;-0.680;2023-08-08T00:28:00;3.60;;;2.80;;
57249;SDS011;43102;52.014;-0.680;2023-08-08T00:29:00;3.60;;;2.80;;
57249;SDS011;43102;52.014;-0.680;2023-08-08T00:30:01;3.60;;;2.80;;
57249;SDS011;43102;52.014;-0.680;2023-08-08T00:31:00;3.60;;;2.80;;
57249;SDS011;43102;52.014;-0.680;2023-08-08T00:32:01;3.60;;;2.80;;
57249;SDS011;43102;52.014;-0.680;2023-08-08T00:33:00;3.60;;;2.80;;
57249;SDS011;43102;52.014;-0.680;2023-08-08T00:34:00;3.60;;;2.80;;
57249;SDS011;43102;52.014;-0.680;2023-08-08T00:35:00;3.60;;;2.80;;
57249;SDS011;43102;52.014;-0.680;2023-08-08T00:36:00;3.60;;;2.80;;
57249;SDS011;43102;52.014;-0.680;2023-08-08T00:37:00;3.60;;;2.80;;
57249;SDS011;43102;52.014;-0.680;2023-08-08T00:38:00;3.60;;;2.80;;
57249;SDS011;43102;52.014;-0.680;2023-08-08T00:39:00;3.60;;;2.80;;
57249;SDS011;43102;52.014;-0.680;2023-08-08T00:40:00;3.60;;;2.80;;
57249;SDS011;43102;52.014;-0.680;2023-08-08T00:41:00;3.60;;;2.80;;
57249;SDS011;43102;52.014;-0.680;2023-08-08T00:42:01;3.60;;;2.80;;
57249;SDS011;43102;52.014;-0.680;2023-08-08T00:43:00;5.90;;;3.00;;
57249;SDS011;43102;52.014;-0.680;2023-08-08T00:44:00;5.90;;;3.00;;
57249;SDS011;43102;52.014;-0.680;2023-08-08T00:45:03;5.90;;;3.00;;
57249;SDS011;43102;52.014;-0.680;2023-08-08T00:46:00;5.90;;;3.00;;
57249;SDS011;43102;52.014;-0.680;2023-08-08T00:47:00;5.90;;;3.00;;
57249;SDS011;43102;52.014;-0.680;2023-08-08T00:48:01;5.90;;;3.00;;
57249;SDS011;43102;52.014;-0.680;2023-08-08T00:49:00;5.90;;;3.00;;
57249;SDS011;43102;52.014;-0.680;2023-08-08T00:50:01;5.90;;;3.00;;
57249;SDS011;43102;52.014;-0.680;2023-08-08T00:51:00;5.90;;;3.00;;
57249;SDS011;43102;52.014;-0.680;2023-08-08T00:52:01;5.90;;;3.00;;
57249;SDS011;43102;52.014;-0.680;2023-08-08T00:53:00;5.90;;;3.00;;
57249;SDS011;43102;52.014;-0.680;2023-08-08T00:54:00;5.90;;;3.00;;
57249;SDS011;43102;52.014;-0.680;2023-08-08T00:55:01;5.90;;;3.00;;
57249;SDS011;43102;52.014;-0.680;2023-08-08T00:56:00;5.90;;;3.00;;
57249;SDS011;43102;52.014;-0.680;2023-08-08T00:57:00;5.90;;;3.00;;
57249;SDS011;43102;52.014;-0.680;2023-08-08T00:58:00;5.90;;;3.00;;
57249;SDS011;43102;52.014;-0.680;2023-08-08T00:59:00;5.90;;;3.00;;
57249;SDS011;43102;52.014;-0.680;2023-08-08T01:00:01;5.90;;;3.00;;
57249;SDS011;43102;52.014;-0.680;2023-08-08T01:01:01;5.90;;;3.00;;
57249;SDS011;43102;52.014;-0.680;2023-08-08T01:02:01;5.90;;;3.00;;
57249;SDS011;43102;52.014;-0.680;2023-08-08T01:03:00;5.90;;;3.00;;
57249;SDS011;43102;52.014;-0.680;2023-08-08T01:04:00;5.90;;;3.00;;
57249;SDS011;43102;52.014;-0.680;2023-08-08T01:05:01;5.90;;;3.00;;
57249;SDS011;43102;52.014;-0.680;2023-08-08T01:07:15;5.90;;;3.00;;
57249;SDS011;43102;52.014;-0.680;2023-08-08T01:08:05;5.90;;;3.00;;
57249;SDS011;43102;52.014;-0.680;2023-08-08T01:09:09;5.90;;;3.00;;
57249;SDS011;43102;52.014;-0.680;2023-08-08T01:10:10;5.90;;;3.00;;
57249;SDS011;43102;52.014;-0.680;2023-08-08T01:11:01;5.90;;;3.00;;
57249;SDS011;43102;52.014;-0.680;2023-08-08T01:12:02;5.90;;;3.00;;
57249;SDS011;43102;52.014;-0.680;2023-08-08T01:13:04;4.00;;;2.70;;
57249;SDS011;43102;52.014;-0.680;2023-08-08T01:14:01;4.00;;;2.70;;
57249;SDS011;43102;52.014;-0.680;2023-08-08T01:15:01;4.00;;;2.70;;
57249;SDS011;43102;52.014;-0.680;2023-08-08T01:16:03;4.00;;;2.70;;
57249;SDS011;43102;52.014;-0.680;2023-08-08T01:17:00;4.00;;;2.70;;
57249;SDS011;43102;52.014;-0.680;2023-08-08T01:18:03;4.00;;;2.70;;
57249;SDS011;43102;52.014;-0.680;2023-08-08T01:19:01;4.00;;;2.70;;
57249;SDS011;43102;52.014;-0.680;2023-08-08T01:20:01;4.00;;;2.70;;
57249;SDS011;43102;52.014;-0.680;2023-08-08T01:21:01;4.00;;;2.70;;
57249;SDS011;43102;52.014;-0.680;2023-08-08T01:22:04;4.00;;;2.70;;
57249;SDS011;43102;52.014;-0.680;2023-08-08T01:23:13;4.00;;;2.70;;
57249;SDS011;43102;52.014;-0.680;2023-08-08T01:25:01;4.00;;;2.70;;
57249;SDS011;43102;52.014;-0.680;2023-08-08T01:26:01;4.00;;;2.70;;
57249;SDS011;43102;52.014;-0.680;2023-08-08T01:27:00;4.00;;;2.70;;
57249;SDS011;43102;52.014;-0.680;2023-08-08T01:28:01;4.00;;;2.70;;
57249;SDS011;43102;52.014;-0.680;2023-08-08T01:29:00;4.00;;;2.70;;
57249;SDS011;43102;52.014;-0.680;2023-08-08T01:30:00;4.00;;;2.70;;
57249;SDS011;43102;52.014;-0.680;2023-08-08T01:31:00;4.00;;;2.70;;
57249;SDS011;43102;52.014;-0.680;2023-08-08T01:32:01;4.00;;;2.70;;
57249;SDS011;43102;52.014;-0.680;2023-08-08T01:33:01;4.00;;;2.70;;
57249;SDS011;43102;52.014;-0.680;2023-08-08T01:34:00;4.00;;;2.70;;
57249;SDS011;43102;52.014;-0.680;2023-08-08T01:35:00;4.00;;;2.70;;
57249;SDS011;43102;52.014;-0.680;2023-08-08T01:36:05;4.00;;;2.70;;
57249;SDS011;43102;52.014;-0.680;2023-08-08T01:37:07;4.00;;;2.70;;
57249;SDS011;43102;52.014;-0.680;2023-08-08T01:38:09;4.00;;;2.70;;
57249;SDS011;43102;52.014;-0.680;2023-08-08T01:39:04;4.00;;;2.70;;
57249;SDS011;43102;52.014;-0.680;2023-08-08T01:40:01;4.00;;;2.70;;
57249;SDS011;43102;52.014;-0.680;2023-08-08T01:41:01;4.00;;;2.70;;
57249;SDS011;43102;52.014;-0.680;2023-08-08T01:42:02;4.00;;;2.70;;
57249;SDS011;43102;52.014;-0.680;2023-08-08T01:43:00;3.30;;;2.60;;
57249;SDS011;43102;52.014;-0.680;2023-08-08T01:44:02;3.30;;;2.60;;
57249;SDS011;43102;52.014;-0.680;2023-08-08T01:45:00;3.30;;;2.60;;
57249;SDS011;43102;52.014;-0.680;2023-08-08T01:46:00;3.30;;;2.60;;
57249;SDS011;43102;52.014;-0.680;2023-08-08T01:47:02;3.30;;;2.60;;
57249;SDS011;43102;52.014;-0.680;2023-08-08T01:48:07;3.30;;;2.60;;
57249;SDS011;43102;52.014;-0.680;2023-08-08T01:49:00;3.30;;;2.60;;
57249;SDS011;43102;52.014;-0.680;2023-08-08T01:50:00;3.30;;;2.60;;
57249;SDS011;43102;52.014;-0.680;2023-08-08T01:51:00;3.30;;;2.60;;
57249;SDS011;43102;52.014;-0.680;2023-08-08T01:52:01;3.30;;;2.60;;
57249;SDS011;43102;52.014;-0.680;2023-08-08T01:53:00;3.30;;;2.60;;
57249;SDS011;43102;52.014;-0.680;2023-08-08T01:54:00;3.30;;;2.60;;
57249;SDS011;43102;52.014;-0.680;2023-08-08T01:55:01;3.30;;;2.60;;
57249;SDS011;43102;52.014;-0.680;2023-08-08T01:56:00;3.30;;;2.60;;
57249;SDS011;43102;52.014;-0.680;2023-08-08T01:57:00;3.30;;;2.60;;
57249;SDS011;43102;52.014;-0.680;2023-08-08T01:58:00;3.30;;;2.60;;
57249;SDS011;43102;52.014;-0.680;2023-08-08T01:59:00;3.30;;;2.60;;
57249;SDS011;43102;52.014;-0.680;2023-08-08T02:00:00;3.30;;;2.60;;
57249;SDS011;43102;52.014;-0.680;2023-08-08T02:01:00;3.30;;;2.60;;
57249;SDS011;43102;52.014;-0.680;2023-08-08T02:02:01;3.30;;;2.60;;
57249;SDS011;43102;52.014;-0.680;2023-08-08T02:03:02;3.30;;;2.60;;
57249;SDS011;43102;52.014;-0.680;2023-08-08T02:04:00;3.30;;;2.60;;
57249;SDS011;43102;52.014;-0.680;2023-08-08T02:05:00;3.30;;;2.60;;
57249;SDS011;43102;52.014;-0.680;2023-08-08T02:06:00;3.30;;;2.60;;
57249;SDS011;43102;52.014;-0.680;2023-08-08T02:07:01;3.30;;;2.60;;
57249;SDS011;43102;52.014;-0.680;2023-08-08T02:08:00;3.30;;;2.60;;
57249;SDS011;43102;52.014;-0.680;2023-08-08T02:09:00;3.30;;;2.60;;
57249;SDS011;43102;52.014;-0.680;2023-08-08T02:10:00;3.30;;;2.60;;
57249;SDS011;43102;52.014;-0.680;2023-08-08T02:11:00;3.30;;;2.60;;
57249;SDS011;43102;52.014;-0.680;2023-08-08T02:12:01;3.30;;;2.60;;
57249;SDS011;43102;52.014;-0.680;2023-08-08T02:13:00;4.10;;;2.30;;
57249;SDS011;43102;52.014;-0.680;2023-08-08T02:14:00;4.10;;;2.30;;
57249;SDS011;43102;52.014;-0.680;2023-08-08T02:15:00;4.10;;;2.30;;
57249;SDS011;43102;52.014;-0.680;2023-08-08T02:16:00;4.10;;;2.30;;
57249;SDS011;43102;52.014;-0.680;2023-08-08T02:17:00;4.10;;;2.30;;
57249;SDS011;43102;52.014;-0.680;2023-08-08T02:18:01;4.10;;;2.30;;
57249;SDS011;43102;52.014;-0.680;2023-08-08T02:19:00;4.10;;;2.30;;
57249;SDS011;43102;52.014;-0.680;2023-08-08T02:20:00;4.10;;;2.30;;
57249;SDS011;43102;52.014;-0.680;2023-08-08T02:21:00;4.10;;;2.30;;
57249;SDS011;43102;52.014;-0.680;2023-08-08T02:22:01;4.10;;;2.30;;
57249;SDS011;43102;52.014;-0.680;2023-08-08T02:23:00;4.10;;;2.30;;
57249;SDS011;43102;52.014;-0.680;2023-08-08T02:24:00;4.10;;;2.30;;
57249;SDS011;43102;52.014;-0.680;2023-08-08T02:25:00;4.10;;;2.30;;
57249;SDS011;43102;52.014;-0.680;2023-08-08T02:26:01;4.10;;;2.30;;
57249;SDS011;43102;52.014;-0.680;2023-08-08T02:27:00;4.10;;;2.30;;
57249;SDS011;43102;52.014;-0.680;2023-08-08T02:28:00;4.10;;;2.30;;
57249;SDS011;43102;52.014;-0.680;2023-08-08T02:29:00;4.10;;;2.30;;
57249;SDS011;43102;52.014;-0.680;2023-08-08T02:30:00;4.10;;;2.30;;
57249;SDS011;43102;52.014;-0.680;2023-08-08T02:31:00;4.10;;;2.30;;
57249;SDS011;43102;52.014;-0.680;2023-08-08T02:32:01;4.10;;;2.30;;
57249;SDS011;43102;52.014;-0.680;2023-08-08T02:33:00;4.10;;;2.30;;
57249;SDS011;43102;52.014;-0.680;2023-08-08T02:34:00;4.10;;;2.30;;
57249;SDS011;43102;52.014;-0.680;2023-08-08T02:35:00;4.10;;;2.30;;
57249;SDS011;43102;52.014;-0.680;2023-08-08T02:36:00;4.10;;;2.30;;
57249;SDS011;43102;52.014;-0.680;2023-08-08T02:37:00;4.10;;;2.30;;
57249;SDS011;43102;52.014;-0.680;2023-08-08T02:38:00;4.10;;;2.30;;
57249;SDS011;43102;52.014;-0.680;2023-08-08T02:39:00;4.10;;;2.30;;
57249;SDS011;43102;52.014;-0.680;2023-08-08T02:40:00;4.10;;;2.30;;
57249;SDS011;43102;52.014;-0.680;2023-08-08T02:41:00;4.10;;;2.30;;
57249;SDS011;43102;52.014;-0.680;2023-08-08T02:42:01;4.10;;;2.30;;
57249;SDS011;43102;52.014;-0.680;2023-08-08T02:43:00;2.50;;;2.20;;
57249;SDS011;43102;52.014;-0.680;2023-08-08T02:44:00;2.50;;;2.20;;
57249;SDS011;43102;52.014;-0.680;2023-08-08T02:45:00;2.50;;;2.20;;
57249;SDS011;43102;52.014;-0.680;2023-08-08T02:46:00;2.50;;;2.20;;
57249;SDS011;43102;52.014;-0.680;2023-08-08T02:47:00;2.50;;;2.20;;
57249;SDS011;43102;52.014;-0.680;2023-08-08T02:48:00;2.50;;;2.20;;
57249;SDS011;43102;52.014;-0.680;2023-08-08T02:49:01;2.50;;;2.20;;
57249;SDS011;43102;52.014;-0.680;2023-08-08T02:50:00;2.50;;;2.20;;
57249;SDS011;43102;52.014;-0.680;2023-08-08T02:51:00;2.50;;;2.20;;
57249;SDS011;43102;52.014;-0.680;2023-08-08T02:52:01;2.50;;;2.20;;
57249;SDS011;43102;52.014;-0.680;2023-08-08T02:53:00;2.50;;;2.20;;
57249;SDS011;43102;52.014;-0.680;2023-08-08T02:54:00;2.50;;;2.20;;
57249;SDS011;43102;52.014;-0.680;2023-08-08T02:55:02;2.50;;;2.20;;
57249;SDS011;43102;52.014;-0.680;2023-08-08T02:56:00;2.50;;;2.20;;
57249;SDS011;43102;52.014;-0.680;2023-08-08T02:57:00;2.50;;;2.20;;
57249;SDS011;43102;52.014;-0.680;2023-08-08T02:58:00;2.50;;;2.20;;
57249;SDS011;43102;52.014;-0.680;2023-08-08T02:59:00;2.50;;;2.20;;
57249;SDS011;43102;52.014;-0.680;2023-08-08T03:00:00;2.50;;;2.20;;
57249;SDS011;43102;52.014;-0.680;2023-08-08T03:01:00;2.50;;;2.20;;
57249;SDS011;43102;52.014;-0.680;2023-08-08T03:02:00;2.50;;;2.20;;
57249;SDS011;43102;52.014;-0.680;2023-08-08T03:03:00;2.50;;;2.20;;
57249;SDS011;43102;52.014;-0.680;2023-08-08T03:04:00;2.50;;;2.20;;
57249;SDS011;43102;52.014;-0.680;2023-08-08T03:05:00;2.50;;;2.20;;
57249;SDS011;43102;52.014;-0.680;2023-08-08T03:06:01;2.50;;;2.20;;
57249;SDS011;43102;52.014;-0.680;2023-08-08T03:07:04;2.50;;;2.20;;
57249;SDS011;43102;52.014;-0.680;2023-08-08T03:08:00;2.50;;;2.20;;
57249;SDS011;43102;52.014;-0.680;2023-08-08T03:09:00;2.50;;;2.20;;
57249;SDS011;43102;52.014;-0.680;2023-08-08T03:10:00;2.50;;;2.20;;
57249;SDS011;43102;52.014;-0.680;2023-08-08T03:11:00;2.50;;;2.20;;
57249;SDS011;43102;52.014;-0.680;2023-08-08T03:12:01;2.50;;;2.20;;
57249;SDS011;43102;52.014;-0.680;2023-08-08T03:13:00;5.70;;;3.00;;
57249;SDS011;43102;52.014;-0.680;2023-08-08T03:14:00;5.70;;;3.00;;
57249;SDS011;43102;52.014;-0.680;2023-08-08T03:15:00;5.70;;;3.00;;
57249;SDS011;43102;52.014;-0.680;2023-08-08T03:16:00;5.70;;;3.00;;
57249;SDS011;43102;52.014;-0.680;2023-08-08T03:17:02;5.70;;;3.00;;
57249;SDS011;43102;52.014;-0.680;2023-08-08T03:18:00;5.70;;;3.00;;
57249;SDS011;43102;52.014;-0.680;2023-08-08T03:19:00;5.70;;;3.00;;
57249;SDS011;43102;52.014;-0.680;2023-08-08T03:20:01;5.70;;;3.00;;
57249;SDS011;43102;52.014;-0.680;2023-08-08T03:21:00;5.70;;;3.00;;
57249;SDS011;43102;52.014;-0.680;2023-08-08T03:22:01;5.70;;;3.00;;
57249;SDS011;43102;52.014;-0.680;2023-08-08T03:23:00;5.70;;;3.00;;
57249;SDS011;43102;52.014;-0.680;2023-08-08T03:24:00;5.70;;;3.00;;
57249;SDS011;43102;52.014;-0.680;2023-08-08T03:25:00;5.70;;;3.00;;
57249;SDS011;43102;52.014;-0.680;2023-08-08T03:26:00;5.70;;;3.00;;
57249;SDS011;43102;52.014;-0.680;2023-08-08T03:27:00;5.70;;;3.00;;
57249;SDS011;43102;52.014;-0.680;2023-08-08T03:28:00;5.70;;;3.00;;
57249;SDS011;43102;52.014;-0.680;2023-08-08T03:29:00;5.70;;;3.00;;
57249;SDS011;43102;52.014;-0.680;2023-08-08T03:30:00;5.70;;;3.00;;
57249;SDS011;43102;52.014;-0.680;2023-08-08T03:31:02;5.70;;;3.00;;
57249;SDS011;43102;52.014;-0.680;2023-08-08T03:32:00;5.70;;;3.00;;
57249;SDS011;43102;52.014;-0.680;2023-08-08T03:33:00;5.70;;;3.00;;
57249;SDS011;43102;52.014;-0.680;2023-08-08T03:34:00;5.70;;;3.00;;
57249;SDS011;43102;52.014;-0.680;2023-08-08T03:35:00;5.70;;;3.00;;
57249;SDS011;43102;52.014;-0.680;2023-08-08T03:36:00;5.70;;;3.00;;
57249;SDS011;43102;52.014;-0.680;2023-08-08T03:37:00;5.70;;;3.00;;
57249;SDS011;43102;52.014;-0.680;2023-08-08T03:38:00;5.70;;;3.00;;
57249;SDS011;43102;52.014;-0.680;2023-08-08T03:39:00;5.70;;;3.00;;
57249;SDS011;43102;52.014;-0.680;2023-08-08T03:40:01;5.70;;;3.00;;
57249;SDS011;43102;52.014;-0.680;2023-08-08T03:41:00;5.70;;;3.00;;
57249;SDS011;43102;52.014;-0.680;2023-08-08T03:42:01;5.70;;;3.00;;
57249;SDS011;43102;52.014;-0.680;2023-08-08T03:43:00;5.10;;;2.80;;
57249;SDS011;43102;52.014;-0.680;2023-08-08T03:44:02;5.10;;;2.80;;
57249;SDS011;43102;52.014;-0.680;2023-08-08T03:45:00;5.10;;;2.80;;
57249;SDS011;43102;52.014;-0.680;2023-08-08T03:46:00;5.10;;;2.80;;
57249;SDS011;43102;52.014;-0.680;2023-08-08T03:47:11;5.10;;;2.80;;
57249;SDS011;43102;52.014;-0.680;2023-08-08T03:48:00;5.10;;;2.80;;
57249;SDS011;43102;52.014;-0.680;2023-08-08T03:49:00;5.10;;;2.80;;
57249;SDS011;43102;52.014;-0.680;2023-08-08T03:50:00;5.10;;;2.80;;
57249;SDS011;43102;52.014;-0.680;2023-08-08T03:51:00;5.10;;;2.80;;
57249;SDS011;43102;52.014;-0.680;2023-08-08T03:52:00;5.10;;;2.80;;
57249;SDS011;43102;52.014;-0.680;2023-08-08T03:53:00;5.10;;;2.80;;
57249;SDS011;43102;52.014;-0.680;2023-08-08T03:54:00;5.10;;;2.80;;
57249;SDS011;43102;52.014;-0.680;2023-08-08T03:55:00;5.10;;;2.80;;
57249;SDS011;43102;52.014;-0.680;2023-08-08T03:56:00;5.10;;;2.80;;
57249;SDS011;43102;52.014;-0.680;2023-08-08T03:57:01;5.10;;;2.80;;
57249;SDS011;43102;52.014;-0.680;2023-08-08T03:58:00;5.10;;;2.80;;
57249;SDS011;43102;52.014;-0.680;2023-08-08T03:59:00;5.10;;;2.80;;
57249;SDS011;43102;52.014;-0.680;2023-08-08T04:00:00;5.10;;;2.80;;
57249;SDS011;43102;52.014;-0.680;2023-08-08T04:01:00;5.10;;;2.80;;
57249;SDS011;43102;52.014;-0.680;2023-08-08T04:02:01;5.10;;;2.80;;
57249;SDS011;43102;52.014;-0.680;2023-08-08T04:03:00;5.10;;;2.80;;
57249;SDS011;43102;52.014;-0.680;2023-08-08T04:04:00;5.10;;;2.80;;
57249;SDS011;43102;52.014;-0.680;2023-08-08T04:05:00;5.10;;;2.80;;
57249;SDS011;43102;52.014;-0.680;2023-08-08T04:06:00;5.10;;;2.80;;
57249;SDS011;43102;52.014;-0.680;2023-08-08T04:07:00;5.10;;;2.80;;
57249;SDS011;43102;52.014;-0.680;2023-08-08T04:08:00;5.10;;;2.80;;
57249;SDS011;43102;52.014;-0.680;2023-08-08T04:09:01;5.10;;;2.80;;
57249;SDS011;43102;52.014;-0.680;2023-08-08T04:10:00;5.10;;;2.80;;
57249;SDS011;43102;52.014;-0.680;2023-08-08T04:11:00;5.10;;;2.80;;
57249;SDS011;43102;52.014;-0.680;2023-08-08T04:12:01;5.10;;;2.80;;
57249;SDS011;43102;52.014;-0.680;2023-08-08T04:13:00;4.70;;;2.90;;
57249;SDS011;43102;52.014;-0.680;2023-08-08T04:14:00;4.70;;;2.90;;
57249;SDS011;43102;52.014;-0.680;2023-08-08T04:15:00;4.70;;;2.90;;
57249;SDS011;43102;52.014;-0.680;2023-08-08T04:16:01;4.70;;;2.90;;
57249;SDS011;43102;52.014;-0.680;2023-08-08T04:17:00;4.70;;;2.90;;
57249;SDS011;43102;52.014;-0.680;2023-08-08T04:18:00;4.70;;;2.90;;
57249;SDS011;43102;52.014;-0.680;2023-08-08T04:19:03;4.70;;;2.90;;
57249;SDS011;43102;52.014;-0.680;2023-08-08T04:20:00;4.70;;;2.90;;
57249;SDS011;43102;52.014;-0.680;2023-08-08T04:21:00;4.70;;;2.90;;
57249;SDS011;43102;52.014;-0.680;2023-08-08T04:22:01;4.70;;;2.90;;
57249;SDS011;43102;52.014;-0.680;2023-08-08T04:23:00;4.70;;;2.90;;
57249;SDS011;43102;52.014;-0.680;2023-08-08T04:24:02;4.70;;;2.90;;
57249;SDS011;43102;52.014;-0.680;2023-08-08T04:25:00;4.70;;;2.90;;
57249;SDS011;43102;52.014;-0.680;2023-08-08T04:26:00;4.70;;;2.90;;
57249;SDS011;43102;52.014;-0.680;2023-08-08T04:27:01;4.70;;;2.90;;
57249;SDS011;43102;52.014;-0.680;2023-08-08T04:28:00;4.70;;;2.90;;
57249;SDS011;43102;52.014;-0.680;2023-08-08T04:29:00;4.70;;;2.90;;
57249;SDS011;43102;52.014;-0.680;2023-08-08T04:30:00;4.70;;;2.90;;
57249;SDS011;43102;52.014;-0.680;2023-08-08T04:31:00;4.70;;;2.90;;
57249;SDS011;43102;52.014;-0.680;2023-08-08T04:32:01;4.70;;;2.90;;
57249;SDS011;43102;52.014;-0.680;2023-08-08T04:33:00;4.70;;;2.90;;
57249;SDS011;43102;52.014;-0.680;2023-08-08T04:34:02;4.70;;;2.90;;
57249;SDS011;43102;52.014;-0.680;2023-08-08T04:35:00;4.70;;;2.90;;
57249;SDS011;43102;52.014;-0.680;2023-08-08T04:36:00;4.70;;;2.90;;
57249;SDS011;43102;52.014;-0.680;2023-08-08T04:37:00;4.70;;;2.90;;
57249;SDS011;43102;52.014;-0.680;2023-08-08T04:38:00;4.70;;;2.90;;
57249;SDS011;43102;52.014;-0.680;2023-08-08T04:39:00;4.70;;;2.90;;
57249;SDS011;43102;52.014;-0.680;2023-08-08T04:40:00;4.70;;;2.90;;
57249;SDS011;43102;52.014;-0.680;2023-08-08T04:41:00;4.70;;;2.90;;
57249;SDS011;43102;52.014;-0.680;2023-08-08T04:42:01;4.70;;;2.90;;
57249;SDS011;43102;52.014;-0.680;2023-08-08T04:43:00;5.00;;;3.10;;
57249;SDS011;43102;52.014;-0.680;2023-08-08T04:44:00;5.00;;;3.10;;
57249;SDS011;43102;52.014;-0.680;2023-08-08T04:45:00;5.00;;;3.10;;
57249;SDS011;43102;52.014;-0.680;2023-08-08T04:46:00;5.00;;;3.10;;
57249;SDS011;43102;52.014;-0.680;2023-08-08T04:47:00;5.00;;;3.10;;
57249;SDS011;43102;52.014;-0.680;2023-08-08T04:48:00;5.00;;;3.10;;
57249;SDS011;43102;52.014;-0.680;2023-08-08T04:49:00;5.00;;;3.10;;
57249;SDS011;43102;52.014;-0.680;2023-08-08T04:50:00;5.00;;;3.10;;
57249;SDS011;43102;52.014;-0.680;2023-08-08T04:51:00;5.00;;;3.10;;
57249;SDS011;43102;52.014;-0.680;2023-08-08T04:52:01;5.00;;;3.10;;
57249;SDS011;43102;52.014;-0.680;2023-08-08T04:53:00;5.00;;;3.10;;
57249;SDS011;43102;52.014;-0.680;2023-08-08T04:54:00;5.00;;;3.10;;
57249;SDS011;43102;52.014;-0.680;2023-08-08T04:55:00;5.00;;;3.10;;
57249;SDS011;43102;52.014;-0.680;2023-08-08T04:56:00;5.00;;;3.10;;
57249;SDS011;43102;52.014;-0.680;2023-08-08T04:57:00;5.00;;;3.10;;
57249;SDS011;43102;52.014;-0.680;2023-08-08T04:58:00;5.00;;;3.10;;
57249;SDS011;43102;52.014;-0.680;2023-08-08T04:59:00;5.00;;;3.10;;
57249;SDS011;43102;52.014;-0.680;2023-08-08T05:00:05;5.00;;;3.10;;
57249;SDS011;43102;52.014;-0.680;2023-08-08T05:01:00;5.00;;;3.10;;
57249;SDS011;43102;52.014;-0.680;2023-08-08T05:02:01;5.00;;;3.10;;
57249;SDS011;43102;52.014;-0.680;2023-08-08T05:03:01;5.00;;;3.10;;
57249;SDS011;43102;52.014;-0.680;2023-08-08T05:04:00;5.00;;;3.10;;
57249;SDS011;43102;52.014;-0.680;2023-08-08T05:05:00;5.00;;;3.10;;
57249;SDS011;43102;52.014;-0.680;2023-08-08T05:06:00;5.00;;;3.10;;
57249;SDS011;43102;52.014;-0.680;2023-08-08T05:07:00;5.00;;;3.10;;
57249;SDS011;43102;52.014;-0.680;2023-08-08T05:08:00;5.00;;;3.10;;
57249;SDS011;43102;52.014;-0.680;2023-08-08T05:09:00;5.00;;;3.10;;
57249;SDS011;43102;52.014;-0.680;2023-08-08T05:10:00;5.00;;;3.10;;
57249;SDS011;43102;52.014;-0.680;2023-08-08T05:11:00;5.00;;;3.10;;
57249;SDS011;43102;52.014;-0.680;2023-08-08T05:12:02;5.00;;;3.10;;
57249;SDS011;43102;52.014;-0.680;2023-08-08T05:13:00;3.90;;;2.90;;
57249;SDS011;43102;52.014;-0.680;2023-08-08T05:14:00;3.90;;;2.90;;
57249;SDS011;43102;52.014;-0.680;2023-08-08T05:15:00;3.90;;;2.90;;
57249;SDS011;43102;52.014;-0.680;2023-08-08T05:16:00;3.90;;;2.90;;
57249;SDS011;43102;52.014;-0.680;2023-08-08T05:17:01;3.90;;;2.90;;
57249;SDS011;43102;52.014;-0.680;2023-08-08T05:18:00;3.90;;;2.90;;
57249;SDS011;43102;52.014;-0.680;2023-08-08T05:19:00;3.90;;;2.90;;
57249;SDS011;43102;52.014;-0.680;2023-08-08T05:20:00;3.90;;;2.90;;
57249;SDS011;43102;52.014;-0.680;2023-08-08T05:21:00;3.90;;;2.90;;
57249;SDS011;43102;52.014;-0.680;2023-08-08T05:22:01;3.90;;;2.90;;
57249;SDS011;43102;52.014;-0.680;2023-08-08T05:23:00;3.90;;;2.90;;
57249;SDS011;43102;52.014;-0.680;2023-08-08T05:24:00;3.90;;;2.90;;
57249;SDS011;43102;52.014;-0.680;2023-08-08T05:25:00;3.90;;;2.90;;
57249;SDS011;43102;52.014;-0.680;2023-08-08T05:26:00;3.90;;;2.90;;
57249;SDS011;43102;52.014;-0.680;2023-08-08T05:27:00;3.90;;;2.90;;
57249;SDS011;43102;52.014;-0.680;2023-08-08T05:28:00;3.90;;;2.90;;
57249;SDS011;43102;52.014;-0.680;2023-08-08T05:29:00;3.90;;;2.90;;
57249;SDS011;43102;52.014;-0.680;2023-08-08T05:30:00;3.90;;;2.90;;
57249;SDS011;43102;52.014;-0.680;2023-08-08T05:31:01;3.90;;;2.90;;
57249;SDS011;43102;52.014;-0.680;2023-08-08T05:32:01;3.90;;;2.90;;
57249;SDS011;43102;52.014;-0.680;2023-08-08T05:33:00;3.90;;;2.90;;
57249;SDS011;43102;52.014;-0.680;2023-08-08T05:34:00;3.90;;;2.90;;
57249;SDS011;43102;52.014;-0.680;2023-08-08T05:35:00;3.90;;;2.90;;
57249;SDS011;43102;52.014;-0.680;2023-08-08T05:36:00;3.90;;;2.90;;
57249;SDS011;43102;52.014;-0.680;2023-08-08T05:37:11;3.90;;;2.90;;
57249;SDS011;43102;52.014;-0.680;2023-08-08T05:38:00;3.90;;;2.90;;
57249;SDS011;43102;52.014;-0.680;2023-08-08T05:39:00;3.90;;;2.90;;
57249;SDS011;43102;52.014;-0.680;2023-08-08T05:40:00;3.90;;;2.90;;
57249;SDS011;43102;52.014;-0.680;2023-08-08T05:41:00;3.90;;;2.90;;
57249;SDS011;43102;52.014;-0.680;2023-08-08T05:42:00;3.90;;;2.90;;
57249;SDS011;43102;52.014;-0.680;2023-08-08T05:43:00;3.90;;;2.90;;
57249;SDS011;43102;52.014;-0.680;2023-08-08T05:44:00;6.10;;;2.80;;
57249;SDS011;43102;52.014;-0.680;2023-08-08T05:45:00;6.10;;;2.80;;
57249;SDS011;43102;52.014;-0.680;2023-08-08T05:46:00;6.10;;;2.80;;
57249;SDS011;43102;52.014;-0.680;2023-08-08T05:47:00;6.10;;;2.80;;
57249;SDS011;43102;52.014;-0.680;2023-08-08T05:48:00;6.10;;;2.80;;
57249;SDS011;43102;52.014;-0.680;2023-08-08T05:49:01;6.10;;;2.80;;
57249;SDS011;43102;52.014;-0.680;2023-08-08T05:50:00;6.10;;;2.80;;
57249;SDS011;43102;52.014;-0.680;2023-08-08T05:51:02;6.10;;;2.80;;
57249;SDS011;43102;52.014;-0.680;2023-08-08T05:52:02;6.10;;;2.80;;
57249;SDS011;43102;52.014;-0.680;2023-08-08T05:53:00;6.10;;;2.80;;
57249;SDS011;43102;52.014;-0.680;2023-08-08T05:54:02;6.10;;;2.80;;
57249;SDS011;43102;52.014;-0.680;2023-08-08T05:55:00;6.10;;;2.80;;
57249;SDS011;43102;52.014;-0.680;2023-08-08T05:56:01;6.10;;;2.80;;
57249;SDS011;43102;52.014;-0.680;2023-08-08T05:57:02;6.10;;;2.80;;